Time;durP1;ratioP1;P1;durP2;ratioP2;P2;SDS_P1;SDS_P2;PMS_P1;PMS_P2;Temp;Humidity;BMP_temperature;BMP_pressure;BME280_temperature;BME280_humidity;BME280_pressure;Samples;Min_cycle;Max_cycle;Signal;HPM_P1;HPM_P2
2023/02/15 00:01:50;;;;;;;2.50;1.20;;;;;;;2.73;100.00;100349.97;31263766;28;20053;-74
2023/02/15 00:16:54;;;;;;;3.33;1.70;;;;;;;2.79;100.00;100370.00;31258995;28;20132;-74
2023/02/15 00:31:56;;;;;;;1.70;1.50;;;;;;;2.61;100.00;100393.03;31263326;28;20432;-74
2023/02/15 00:46:58;;;;;;;2.23;1.60;;;;;;;2.59;100.00;100384.59;31251694;28;20057;-74
2023/02/15 01:01:59;;;;;;;4.47;2.20;;;;;;;2.71;100.00;100387.09;31232014;28;20433;-74
2023/02/15 01:17:01;;;;;;;4.03;2.07;;;;;;;2.64;100.00;100381.59;31237674;28;20045;-73
2023/02/15 01:32:03;;;;;;;2.67;1.87;;;;;;;2.73;100.00;100395.56;31235237;28;20049;-74
2023/02/15 01:47:10;;;;;;;3.20;1.70;;;;;;;2.85;100.00;100391.91;31232427;28;20053;-74
2023/02/15 02:02:15;;;;;;;2.60;2.03;;;;;;;2.80;100.00;100395.69;31222306;28;20056;-73
2023/02/15 02:17:49;;;;;;;5.57;2.17;;;;;;;2.82;100.00;100404.13;31232430;28;20401;-74
2023/02/15 02:33:11;;;;;;;5.97;2.97;;;;;;;2.68;100.00;100406.56;31239779;28;20111;-74
2023/02/15 02:48:21;;;;;;;6.87;3.07;;;;;;;2.57;100.00;100409.06;31231166;28;20064;-74
2023/02/15 03:03:43;;;;;;;6.97;3.00;;;;;;;2.61;100.00;100412.56;31221437;28;20099;-74
2023/02/15 03:18:59;;;;;;;8.40;3.23;;;;;;;2.59;100.00;100422.13;31239952;28;21131;-74
2023/02/15 03:34:09;;;;;;;8.50;4.03;;;;;;;2.45;100.00;100424.53;31227615;28;20515;-74
2023/02/15 03:49:20;;;;;;;11.30;5.27;;;;;;;2.45;100.00;100445.97;31248427;28;20058;-74
2023/02/15 04:04:28;;;;;;;12.47;6.03;;;;;;;2.55;100.00;100448.09;31224384;28;20060;-73
2023/02/15 04:34:50;;;;;;;8.40;3.27;;;;;;;2.53;100.00;100477.13;31235363;28;20066;-76
2023/02/15 04:49:52;;;;;;;10.90;3.00;;;;;;;2.49;100.00;100497.72;31246275;28;20107;-75
2023/02/15 05:04:54;;;;;;;7.27;3.37;;;;;;;2.48;100.00;100522.97;31237679;28;20053;-74
2023/02/15 05:19:56;;;;;;;10.30;3.80;;;;;;;2.46;100.00;100530.59;31232578;28;20068;-75
2023/02/15 05:34:58;;;;;;;9.97;3.70;;;;;;;2.47;100.00;100545.53;31231168;28;20115;-75
2023/02/15 05:49:59;;;;;;;10.57;4.23;;;;;;;2.36;100.00;100564.84;31262243;28;20501;-74
2023/02/15 06:05:03;;;;;;;7.20;2.53;;;;;;;2.49;100.00;100557.47;31231887;28;20107;-80
2023/02/15 06:20:05;;;;;;;8.37;3.77;;;;;;;2.73;100.00;100569.81;31250887;28;20551;-82
2023/02/15 06:35:08;;;;;;;6.77;4.27;;;;;;;2.90;100.00;100574.72;31244732;28;20555;-80
2023/02/15 06:50:10;;;;;;;14.40;6.60;;;;;;;3.03;100.00;100586.88;31239841;28;20501;-75
2023/02/15 07:05:12;;;;;;;14.27;5.97;;;;;;;3.00;100.00;100586.78;31219503;28;20053;-77
2023/02/15 07:20:20;;;;;;;9.50;4.77;;;;;;;3.56;100.00;100592.38;31228784;28;20080;-77
2023/02/15 07:35:22;;;;;;;5.87;3.40;;;;;;;3.78;100.00;100594.25;31217402;28;20445;-77
2023/02/15 07:50:24;;;;;;;25.00;9.73;;;;;;;4.09;100.00;100616.59;31208071;28;20694;-78
2023/02/15 08:05:28;;;;;;;3.93;1.87;;;;;;;4.03;100.00;100626.88;31244247;28;20056;-77
2023/02/15 08:20:31;;;;;;;3.03;1.63;;;;;;;4.13;100.00;100647.00;31261711;28;20094;-76
2023/02/15 08:35:33;;;;;;;3.97;1.90;;;;;;;4.09;100.00;100651.53;31240635;28;20459;-76
2023/02/15 08:50:35;;;;;;;2.80;1.50;;;;;;;4.00;100.00;100648.34;31209109;28;20096;-71
2023/02/15 09:05:37;;;;;;;2.50;1.50;;;;;;;3.98;100.00;100662.13;31219843;28;20050;-71
2023/02/15 09:20:39;;;;;;;2.27;1.70;;;;;;;4.03;100.00;100661.03;31210186;28;20054;-81
2023/02/15 09:35:41;;;;;;;4.53;1.93;;;;;;;4.03;100.00;100645.69;31269063;28;20123;-85
2023/02/15 09:51:13;;;;;;;1.63;1.53;;;;;;;4.26;100.00;100659.06;31269753;28;20113;-94
2023/02/15 10:06:23;;;;;;;2.67;1.70;;;;;;;4.03;100.00;100663.72;31255205;28;20136;-83
2023/02/15 10:21:46;;;;;;;2.87;1.80;;;;;;;4.31;100.00;100669.53;31263054;28;20046;-87
2023/02/15 10:37:10;;;;;;;1.93;1.63;;;;;;;5.07;100.00;100667.47;31269621;28;20056;-87
2023/02/15 10:52:30;;;;;;;3.90;2.00;;;;;;;4.43;100.00;100666.63;31254340;28;20065;-90
2023/02/15 11:07:37;;;;;;;5.97;1.97;;;;;;;5.33;100.00;100673.91;31265345;28;20124;-87
2023/02/15 11:22:40;;;;;;;2.93;2.20;;;;;;;4.78;100.00;100679.00;31266381;28;20056;-78
2023/02/15 11:37:54;;;;;;;3.63;2.10;;;;;;;4.74;100.00;100675.47;31255691;28;20045;-79
2023/02/15 11:53:04;;;;;;;5.33;2.53;;;;;;;4.37;100.00;100689.59;31276165;28;20057;-80
2023/02/15 12:08:21;;;;;;;4.90;2.63;;;;;;;4.09;100.00;100705.25;31261549;28;20489;-79
2023/02/15 12:23:30;;;;;;;4.40;1.60;;;;;;;4.25;100.00;100713.97;31277079;28;20053;-87
2023/02/15 12:38:32;;;;;;;2.87;2.07;;;;;;;4.94;100.00;100738.03;31276764;28;20489;-84
2023/02/15 12:53:36;;;;;;;2.93;1.73;;;;;;;4.94;100.00;100738.81;31310613;28;20118;-82
2023/02/15 13:08:47;;;;;;;2.40;1.50;;;;;;;4.84;100.00;100747.50;31247440;28;20472;-82
2023/02/15 13:23:56;;;;;;;4.67;3.00;;;;;;;4.83;100.00;100755.94;31264344;28;20107;-73
2023/02/15 13:39:27;;;;;;;4.43;2.30;;;;;;;3.42;100.00;100774.66;31228533;28;20536;-73
2023/02/15 13:54:35;;;;;;;5.37;2.60;;;;;;;3.10;100.00;100779.34;31226063;28;20062;-73
2023/02/15 14:09:59;;;;;;;4.77;2.30;;;;;;;2.82;100.00;100811.72;31225833;28;20061;-74
2023/02/15 14:25:20;;;;;;;3.60;2.10;;;;;;;2.29;100.00;100803.16;31235009;28;20053;-75
2023/02/15 14:41:03;;;;;;;2.80;1.90;;;;;;;2.05;100.00;100811.34;31226234;28;20186;-73
2023/02/15 14:56:17;;;;;;;3.87;2.23;;;;;;;1.86;100.00;100820.03;31232926;28;20049;-73
2023/02/15 15:11:43;;;;;;;6.73;2.67;;;;;;;1.96;100.00;100840.94;31223399;28;20099;-75
2023/02/15 15:26:50;;;;;;;7.60;2.10;;;;;;;2.18;100.00;100847.63;31216395;28;20049;-75
2023/02/15 15:42:02;;;;;;;4.43;2.90;;;;;;;2.53;100.00;100866.53;31211505;28;20053;-86
2023/02/15 15:57:06;;;;;;;5.97;3.13;;;;;;;2.37;100.00;100893.31;31239647;28;20065;-74
2023/02/15 16:12:17;;;;;;;3.73;2.57;;;;;;;2.25;100.00;100893.38;31210379;28;20049;-83
2023/02/15 16:27:31;;;;;;;5.77;3.10;;;;;;;2.13;100.00;100904.13;31253336;28;20527;-81
2023/02/15 16:42:34;;;;;;;5.67;2.37;;;;;;;1.97;100.00;100917.47;31262773;28;20119;-80
2023/02/15 16:57:38;;;;;;;3.10;2.43;;;;;;;1.93;100.00;100934.56;31277263;28;20103;-80
2023/02/15 17:12:55;;;;;;;3.60;2.00;;;;;;;2.00;100.00;100940.13;31245135;28;20057;-81
2023/02/15 17:27:57;;;;;;;3.93;2.50;;;;;;;2.46;100.00;100959.38;31244362;28;20064;-85
2023/02/15 17:43:00;;;;;;;7.73;2.60;;;;;;;2.07;100.00;100953.72;31308865;28;20459;-86
2023/02/15 17:58:05;;;;;;;7.60;2.90;;;;;;;2.09;100.00;100964.88;31259420;28;20362;-79
2023/02/15 18:13:07;;;;;;;4.60;2.27;;;;;;;2.44;100.00;100958.94;31270541;28;20049;-78
2023/02/15 18:28:09;;;;;;;4.03;2.47;;;;;;;2.28;100.00;100962.34;31259190;28;20049;-77
2023/02/15 18:43:12;;;;;;;4.53;2.93;;;;;;;1.69;100.00;100954.91;31240721;28;20100;-80
2023/02/15 18:58:20;;;;;;;5.93;2.90;;;;;;;1.56;100.00;100950.72;31217107;28;20521;-76
2023/02/15 19:13:22;;;;;;;5.50;2.93;;;;;;;1.48;100.00;100959.63;31258337;28;20049;-88
2023/02/15 19:28:31;;;;;;;5.27;2.90;;;;;;;1.47;100.00;100952.72;31279117;28;20045;-85
2023/02/15 19:43:34;;;;;;;4.73;2.63;;;;;;;1.49;100.00;100950.50;31271041;28;20089;-78
2023/02/15 19:58:36;;;;;;;8.83;4.83;;;;;;;1.44;100.00;100953.38;31228421;28;20049;-77
2023/02/15 20:13:39;;;;;;;11.67;4.13;;;;;;;1.06;100.00;100955.63;31193133;28;20123;-78
2023/02/15 20:28:41;;;;;;;7.73;4.23;;;;;;;0.87;100.00;100951.59;31252724;28;20049;-77
2023/02/15 20:43:43;;;;;;;5.17;3.37;;;;;;;0.59;100.00;100950.63;31219205;28;20057;-72
2023/02/15 20:58:45;;;;;;;8.00;3.27;;;;;;;0.50;100.00;100947.25;31217104;28;20135;-73
2023/02/15 21:13:50;;;;;;;10.23;3.17;;;;;;;0.23;100.00;100949.41;31214377;28;20046;-81
2023/02/15 21:28:53;;;;;;;5.53;2.97;;;;;;;0.00;100.00;100959.63;31255681;28;20459;-80
2023/02/15 21:59:17;;;;;;;5.27;2.77;;;;;;;0.17;100.00;100966.75;31253693;28;20045;-79
2023/02/15 22:14:39;;;;;;;10.03;5.47;;;;;;;0.11;100.00;100968.03;31204266;28;20057;-78
2023/02/15 22:29:41;;;;;;;7.30;3.80;;;;;;;-0.04;100.00;100982.75;31225511;28;20060;-79
2023/02/15 22:44:44;;;;;;;5.33;3.90;;;;;;;-0.08;100.00;100983.75;31241949;28;20108;-78
2023/02/15 22:59:47;;;;;;;10.47;4.63;;;;;;;-0.23;100.00;100984.28;31239556;28;20046;-78
2023/02/15 23:14:49;;;;;;;5.33;3.20;;;;;;;-0.23;100.00;100994.97;31247625;28;20114;-78
2023/02/15 23:29:52;;;;;;;11.40;5.27;;;;;;;-0.38;100.00;101005.09;31245056;28;20168;-78
2023/02/15 23:44:55;;;;;;;8.20;4.17;;;;;;;-0.15;100.00;101024.28;31260431;28;20058;-78
2023/02/15 23:59:57;;;;;;;7.77;4.40;;;;;;;-0.04;100.00;101030.03;31259258;28;20049;-79
